sensor_id;sensor_type;location;lat;lon;timestamp;temperature;humidity
30467;DHT22;17258;52.560;13.046;2023-08-31T00:00:01;20.70;57.50
30467;DHT22;17258;52.560;13.046;2023-08-31T00:10:05;20.80;57.70
30467;DHT22;17258;52.560;13.046;2023-08-31T00:20:12;20.80;57.90
30467;DHT22;17258;52.560;13.046;2023-08-31T00:30:13;20.80;58.20
30467;DHT22;17258;52.560;13.046;2023-08-31T00:40:14;20.80;58.20
30467;DHT22;17258;52.560;13.046;2023-08-31T00:50:16;20.70;58.30
30467;DHT22;17258;52.560;13.046;2023-08-31T01:00:20;20.70;58.40
30467;DHT22;17258;52.560;13.046;2023-08-31T01:31:04;20.40;58.50
30467;DHT22;17258;52.560;13.046;2023-08-31T01:41:07;20.30;58.50
30467;DHT22;17258;52.560;13.046;2023-08-31T01:51:11;20.20;58.70
30467;DHT22;17258;52.560;13.046;2023-08-31T02:01:12;20.10;58.70
30467;DHT22;17258;52.560;13.046;2023-08-31T02:11:13;20.00;58.60
30467;DHT22;17258;52.560;13.046;2023-08-31T02:21:14;19.90;58.70
30467;DHT22;17258;52.560;13.046;2023-08-31T02:31:17;19.90;58.70
30467;DHT22;17258;52.560;13.046;2023-08-31T02:41:17;19.80;59.40
30467;DHT22;17258;52.560;13.046;2023-08-31T02:51:18;19.80;58.80
30467;DHT22;17258;52.560;13.046;2023-08-31T03:01:19;19.80;59.00
30467;DHT22;17258;52.560;13.046;2023-08-31T03:11:19;19.70;58.90
30467;DHT22;17258;52.560;13.046;2023-08-31T03:21:20;19.70;58.90
30467;DHT22;17258;52.560;13.046;2023-08-31T03:31:24;19.70;59.10
30467;DHT22;17258;52.560;13.046;2023-08-31T03:41:24;19.70;59.20
30467;DHT22;17258;52.560;13.046;2023-08-31T03:51:25;19.70;59.30
30467;DHT22;17258;52.560;13.046;2023-08-31T04:01:26;19.60;59.20
30467;DHT22;17258;52.560;13.046;2023-08-31T04:11:26;19.60;59.30
30467;DHT22;17258;52.560;13.046;2023-08-31T04:21:27;19.50;59.50
30467;DHT22;17258;52.560;13.046;2023-08-31T04:31:31;19.50;59.70
30467;DHT22;17258;52.560;13.046;2023-08-31T04:41:32;19.50;59.90
30467;DHT22;17258;52.560;13.046;2023-08-31T04:51:35;19.50;60.00
30467;DHT22;17258;52.560;13.046;2023-08-31T05:01:37;19.60;60.20
30467;DHT22;17258;52.560;13.046;2023-08-31T05:11:39;19.60;60.20
30467;DHT22;17258;52.560;13.046;2023-08-31T05:21:39;19.70;60.20
30467;DHT22;17258;52.560;13.046;2023-08-31T05:31:40;19.70;60.10
30467;DHT22;17258;52.560;13.046;2023-08-31T05:41:41;19.70;60.10
30467;DHT22;17258;52.560;13.046;2023-08-31T05:51:42;19.80;60.40
30467;DHT22;17258;52.560;13.046;2023-08-31T06:01:43;19.80;60.40
30467;DHT22;17258;52.560;13.046;2023-08-31T06:11:44;19.90;60.80
30467;DHT22;17258;52.560;13.046;2023-08-31T06:21:45;20.00;61.00
30467;DHT22;17258;52.560;13.046;2023-08-31T06:31:45;20.10;60.80
30467;DHT22;17258;52.560;13.046;2023-08-31T06:41:51;20.10;60.70
30467;DHT22;17258;52.560;13.046;2023-08-31T06:52:04;20.10;60.70
30467;DHT22;17258;52.560;13.046;2023-08-31T07:02:08;20.10;60.80
30467;DHT22;17258;52.560;13.046;2023-08-31T07:12:09;20.00;61.00
30467;DHT22;17258;52.560;13.046;2023-08-31T07:22:14;20.00;60.80
30467;DHT22;17258;52.560;13.046;2023-08-31T07:32:15;20.00;60.40
30467;DHT22;17258;52.560;13.046;2023-08-31T07:42:15;20.00;60.50
30467;DHT22;17258;52.560;13.046;2023-08-31T07:52:21;19.90;60.80
30467;DHT22;17258;52.560;13.046;2023-08-31T08:02:25;20.00;61.30
30467;DHT22;17258;52.560;13.046;2023-08-31T08:12:25;20.10;61.20
30467;DHT22;17258;52.560;13.046;2023-08-31T08:22:32;20.10;61.30
30467;DHT22;17258;52.560;13.046;2023-08-31T08:32:33;20.40;62.20
30467;DHT22;17258;52.560;13.046;2023-08-31T08:42:40;20.60;61.30
30467;DHT22;17258;52.560;13.046;2023-08-31T08:52:42;20.70;60.20
30467;DHT22;17258;52.560;13.046;2023-08-31T09:02:49;20.80;60.50
30467;DHT22;17258;52.560;13.046;2023-08-31T09:12:53;21.00;60.20
30467;DHT22;17258;52.560;13.046;2023-08-31T09:22:55;21.00;59.70
30467;DHT22;17258;52.560;13.046;2023-08-31T09:32:56;21.10;60.00
30467;DHT22;17258;52.560;13.046;2023-08-31T09:42:57;21.30;59.60
30467;DHT22;17258;52.560;13.046;2023-08-31T09:53:03;21.50;59.30
30467;DHT22;17258;52.560;13.046;2023-08-31T10:03:05;21.80;59.30
30467;DHT22;17258;52.560;13.046;2023-08-31T10:13:09;22.00;58.10
30467;DHT22;17258;52.560;13.046;2023-08-31T10:23:11;22.10;57.70
30467;DHT22;17258;52.560;13.046;2023-08-31T10:33:20;22.10;57.90
30467;DHT22;17258;52.560;13.046;2023-08-31T10:43:24;22.20;58.20
30467;DHT22;17258;52.560;13.046;2023-08-31T10:53:30;22.20;57.80
30467;DHT22;17258;52.560;13.046;2023-08-31T11:03:56;22.20;57.50
30467;DHT22;17258;52.560;13.046;2023-08-31T11:13:57;22.20;57.70
30467;DHT22;17258;52.560;13.046;2023-08-31T11:23:58;22.20;58.20
30467;DHT22;17258;52.560;13.046;2023-08-31T11:34:00;22.40;58.90
30467;DHT22;17258;52.560;13.046;2023-08-31T11:44:01;22.80;59.50
30467;DHT22;17258;52.560;13.046;2023-08-31T11:54:02;23.40;59.10
30467;DHT22;17258;52.560;13.046;2023-08-31T12:04:13;23.90;58.10
30467;DHT22;17258;52.560;13.046;2023-08-31T12:14:30;24.30;57.10
30467;DHT22;17258;52.560;13.046;2023-08-31T12:24:37;24.60;54.90
30467;DHT22;17258;52.560;13.046;2023-08-31T12:34:43;24.70;53.10
30467;DHT22;17258;52.560;13.046;2023-08-31T12:44:46;24.80;54.70
30467;DHT22;17258;52.560;13.046;2023-08-31T12:54:50;25.20;55.40
30467;DHT22;17258;52.560;13.046;2023-08-31T13:04:50;25.60;54.40
30467;DHT22;17258;52.560;13.046;2023-08-31T13:14:51;25.90;53.50
30467;DHT22;17258;52.560;13.046;2023-08-31T13:25:01;26.10;52.50
30467;DHT22;17258;52.560;13.046;2023-08-31T13:35:02;26.20;51.10
30467;DHT22;17258;52.560;13.046;2023-08-31T13:45:06;26.20;52.40
30467;DHT22;17258;52.560;13.046;2023-08-31T13:55:07;26.20;52.30
30467;DHT22;17258;52.560;13.046;2023-08-31T14:05:11;26.10;52.30
30467;DHT22;17258;52.560;13.046;2023-08-31T14:15:12;25.80;51.00
30467;DHT22;17258;52.560;13.046;2023-08-31T14:25:15;25.20;48.30
30467;DHT22;17258;52.560;13.046;2023-08-31T14:35:16;24.50;49.70
30467;DHT22;17258;52.560;13.046;2023-08-31T14:45:18;23.90;50.20
30467;DHT22;17258;52.560;13.046;2023-08-31T14:55:19;23.30;50.60
30467;DHT22;17258;52.560;13.046;2023-08-31T15:05:19;22.80;51.00
30467;DHT22;17258;52.560;13.046;2023-08-31T15:15:28;22.30;50.60
30467;DHT22;17258;52.560;13.046;2023-08-31T15:25:33;21.70;51.20
30467;DHT22;17258;52.560;13.046;2023-08-31T15:35:34;21.00;52.30
30467;DHT22;17258;52.560;13.046;2023-08-31T15:45:34;20.60;53.50
30467;DHT22;17258;52.560;13.046;2023-08-31T15:55:38;20.50;54.30
30467;DHT22;17258;52.560;13.046;2023-08-31T16:05:38;20.40;54.80
30467;DHT22;17258;52.560;13.046;2023-08-31T16:15:45;20.40;55.10
30467;DHT22;17258;52.560;13.046;2023-08-31T16:25:47;20.50;55.20
30467;DHT22;17258;52.560;13.046;2023-08-31T16:36:01;20.60;55.50
30467;DHT22;17258;52.560;13.046;2023-08-31T16:46:06;20.70;55.80
30467;DHT22;17258;52.560;13.046;2023-08-31T16:56:06;20.80;55.40
30467;DHT22;17258;52.560;13.046;2023-08-31T17:06:07;20.70;55.10
30467;DHT22;17258;52.560;13.046;2023-08-31T17:16:11;20.50;54.90
30467;DHT22;17258;52.560;13.046;2023-08-31T17:26:28;20.40;54.90
30467;DHT22;17258;52.560;13.046;2023-08-31T17:36:31;20.10;55.20
30467;DHT22;17258;52.560;13.046;2023-08-31T17:46:32;19.90;55.10
30467;DHT22;17258;52.560;13.046;2023-08-31T17:56:35;19.60;55.40
30467;DHT22;17258;52.560;13.046;2023-08-31T18:06:36;19.40;55.80
30467;DHT22;17258;52.560;13.046;2023-08-31T18:16:36;19.30;56.10
30467;DHT22;17258;52.560;13.046;2023-08-31T18:26:37;19.20;56.40
30467;DHT22;17258;52.560;13.046;2023-08-31T18:36:38;19.20;56.40
30467;DHT22;17258;52.560;13.046;2023-08-31T18:46:42;19.10;56.40
30467;DHT22;17258;52.560;13.046;2023-08-31T18:56:43;19.10;56.60
30467;DHT22;17258;52.560;13.046;2023-08-31T19:06:43;18.90;56.40
30467;DHT22;17258;52.560;13.046;2023-08-31T19:16:44;18.80;56.40
30467;DHT22;17258;52.560;13.046;2023-08-31T19:26:45;18.70;56.50
30467;DHT22;17258;52.560;13.046;2023-08-31T19:36:46;18.60;56.60
30467;DHT22;17258;52.560;13.046;2023-08-31T19:46:47;18.40;56.70
30467;DHT22;17258;52.560;13.046;2023-08-31T19:56:49;18.30;56.80
30467;DHT22;17258;52.560;13.046;2023-08-31T20:06:49;18.30;57.10
30467;DHT22;17258;52.560;13.046;2023-08-31T20:16:50;18.20;57.20
30467;DHT22;17258;52.560;13.046;2023-08-31T20:26:51;18.20;57.30
30467;DHT22;17258;52.560;13.046;2023-08-31T20:36:51;18.10;57.30
30467;DHT22;17258;52.560;13.046;2023-08-31T20:46:55;18.10;57.50
30467;DHT22;17258;52.560;13.046;2023-08-31T20:56:58;18.00;57.50
30467;DHT22;17258;52.560;13.046;2023-08-31T21:06:58;18.00;57.60
30467;DHT22;17258;52.560;13.046;2023-08-31T21:16:59;17.90;57.60
30467;DHT22;17258;52.560;13.046;2023-08-31T21:27:00;17.90;57.80
30467;DHT22;17258;52.560;13.046;2023-08-31T21:37:00;17.90;57.90
30467;DHT22;17258;52.560;13.046;2023-08-31T21:47:01;17.80;58.00
30467;DHT22;17258;52.560;13.046;2023-08-31T21:57:02;17.80;58.10
30467;DHT22;17258;52.560;13.046;2023-08-31T22:07:03;17.80;58.30
30467;DHT22;17258;52.560;13.046;2023-08-31T22:17:05;17.80;58.30
30467;DHT22;17258;52.560;13.046;2023-08-31T22:27:06;17.80;58.40
30467;DHT22;17258;52.560;13.046;2023-08-31T22:37:08;17.80;58.40
30467;DHT22;17258;52.560;13.046;2023-08-31T22:47:10;17.80;58.30
30467;DHT22;17258;52.560;13.046;2023-08-31T22:57:11;17.80;58.30
30467;DHT22;17258;52.560;13.046;2023-08-31T23:07:15;17.70;58.20
30467;DHT22;17258;52.560;13.046;2023-08-31T23:17:15;17.60;58.20
30467;DHT22;17258;52.560;13.046;2023-08-31T23:27:16;17.50;58.20
30467;DHT22;17258;52.560;13.046;2023-08-31T23:37:16;17.40;58.20
30467;DHT22;17258;52.560;13.046;2023-08-31T23:47:17;17.30;58.20
30467;DHT22;17258;52.560;13.046;2023-08-31T23:57:18;17.20;58.20
